createdAt,value
2019-05-02T00:02:23.948Z,18.00
2019-05-02T00:04:55.882Z,18.07
2019-05-02T00:07:20.126Z,17.60
2019-05-02T00:09:48.840Z,16.90
2019-05-02T00:12:18.442Z,19.37
2019-05-02T00:14:44.399Z,18.67
2019-05-02T00:17:10.034Z,18.07
2019-05-02T00:19:35.415Z,18.47
2019-05-02T00:22:00.776Z,19.00
2019-05-02T00:24:27.660Z,18.07
2019-05-02T00:26:56.189Z,18.53
2019-05-02T00:29:23.693Z,19.23
2019-05-02T00:31:48.866Z,19.10
2019-05-02T00:34:14.390Z,18.70
2019-05-02T00:36:39.774Z,18.47
2019-05-02T00:39:09.518Z,18.57
2019-05-02T00:41:38.432Z,17.87
2019-05-02T00:44:01.047Z,17.80
2019-05-02T00:46:30.276Z,18.87
2019-05-02T00:48:59.678Z,20.00
2019-05-02T00:51:26.720Z,17.37
2019-05-02T00:53:51.470Z,18.00
2019-05-02T00:56:16.846Z,17.87
2019-05-02T00:58:42.652Z,18.30
2019-05-02T01:01:29.481Z,17.70
2019-05-02T01:03:56.545Z,17.83
2019-05-02T01:06:21.907Z,18.40
2019-05-02T01:08:47.314Z,18.00
2019-05-02T01:11:13.889Z,17.97
2019-05-02T01:13:39.253Z,17.57
2019-05-02T01:16:05.001Z,17.47
2019-05-02T01:18:30.418Z,16.73
2019-05-02T01:20:58.126Z,16.63
2019-05-02T01:23:23.072Z,16.47
2019-05-02T01:25:52.730Z,16.00
2019-05-02T01:28:49.245Z,15.63
2019-05-02T01:31:30.018Z,15.43
2019-05-02T01:34:03.079Z,14.77
2019-05-02T01:36:36.829Z,14.43
2019-05-02T01:39:03.001Z,14.00
2019-05-02T01:41:31.089Z,14.03
2019-05-02T01:44:00.088Z,14.00
2019-05-02T01:46:24.192Z,13.97
2019-05-02T01:48:49.679Z,13.20
2019-05-02T01:51:15.065Z,13.80
2019-05-02T01:53:40.499Z,14.23
2019-05-02T01:56:05.963Z,13.03
2019-05-02T01:58:31.318Z,13.87
2019-05-02T02:00:56.811Z,12.87
2019-05-02T02:03:22.294Z,12.63
2019-05-02T02:05:47.655Z,12.67
2019-05-02T02:08:13.180Z,11.67
2019-05-02T02:10:38.696Z,12.73
2019-05-02T02:13:05.338Z,11.40
2019-05-02T02:15:31.232Z,12.00
2019-05-02T02:17:56.594Z,12.40
2019-05-02T02:20:24.922Z,11.70
2019-05-02T02:23:10.264Z,11.20
2019-05-02T02:25:40.986Z,10.83
2019-05-02T02:28:06.356Z,11.70
2019-05-02T02:30:32.106Z,11.70
2019-05-02T02:33:00.678Z,10.93
2019-05-02T02:35:24.443Z,11.27
2019-05-02T02:37:52.989Z,11.03
2019-05-02T02:40:17.006Z,10.97
2019-05-02T02:42:42.378Z,10.80
2019-05-02T02:45:20.440Z,10.10
2019-05-02T02:47:45.866Z,10.47
2019-05-02T02:50:11.221Z,10.63
2019-05-02T02:52:37.686Z,10.67
2019-05-02T02:55:04.086Z,11.10
2019-05-02T02:57:29.454Z,10.23
2019-05-02T03:00:06.515Z,10.90
2019-05-02T03:02:22.949Z,10.57
2019-05-02T03:04:48.299Z,10.13
2019-05-02T03:07:24.490Z,10.80
2019-05-02T03:09:40.740Z,10.17
2019-05-02T03:12:41.642Z,10.83
2019-05-02T03:15:06.502Z,10.50
2019-05-02T03:17:31.858Z,10.33
2019-05-02T03:20:01.387Z,10.03
2019-05-02T03:22:24.340Z,9.53
2019-05-02T03:24:49.689Z,9.93
2019-05-02T03:27:16.357Z,9.90
2019-05-02T03:29:44.496Z,10.17
2019-05-02T03:32:16.904Z,11.00
2019-05-02T03:34:48.795Z,11.27
2019-05-02T03:37:10.489Z,11.33
2019-05-02T03:39:29.687Z,11.03
2019-05-02T03:42:02.043Z,11.70
2019-05-02T03:44:25.951Z,12.30
2019-05-02T03:46:54.132Z,12.43
2019-05-02T03:49:16.077Z,11.97
2019-05-02T03:51:41.533Z,12.07
2019-05-02T03:54:09.999Z,12.47
2019-05-02T03:56:33.926Z,12.03
2019-05-02T03:58:59.492Z,11.33
2019-05-02T04:01:24.942Z,11.37
2019-05-02T04:03:51.197Z,11.33
2019-05-02T04:06:20.921Z,11.57
2019-05-02T04:08:44.436Z,10.83
2019-05-02T04:11:22.524Z,11.70
2019-05-02T04:13:48.877Z,10.77
2019-05-02T04:16:15.392Z,10.50
2019-05-02T04:18:41.414Z,10.30
2019-05-02T04:21:06.807Z,10.37
2019-05-02T04:23:32.273Z,9.63
2019-05-02T04:25:58.654Z,9.73
2019-05-02T04:28:24.707Z,8.90
2019-05-02T04:30:51.305Z,9.03
2019-05-02T04:33:17.178Z,9.27
2019-05-02T04:35:42.547Z,8.90
2019-05-02T04:38:18.998Z,9.57
2019-05-02T04:40:41.722Z,9.20
2019-05-02T04:43:07.319Z,9.27
2019-05-02T04:45:45.968Z,9.47
2019-05-02T04:48:00.883Z,9.43
2019-05-02T04:50:25.148Z,9.53
2019-05-02T04:52:53.766Z,9.60
2019-05-02T04:55:26.080Z,8.80
2019-05-02T04:57:47.420Z,9.93
2019-05-02T05:00:11.962Z,9.60
2019-05-02T05:02:40.050Z,9.27
2019-05-02T05:05:04.659Z,10.07
2019-05-02T05:07:31.207Z,9.00
2019-05-02T05:10:02.849Z,9.83
2019-05-02T05:12:23.999Z,9.70
2019-05-02T05:14:49.377Z,9.20
2019-05-02T05:17:17.932Z,8.80
2019-05-02T05:19:41.835Z,8.50
2019-05-02T05:22:11.570Z,8.33
2019-05-02T05:24:42.626Z,7.47
2019-05-02T05:27:08.312Z,8.00
2019-05-02T05:29:33.765Z,8.30
2019-05-02T05:32:05.110Z,7.87
2019-05-02T05:34:28.536Z,7.63
2019-05-02T05:36:53.155Z,7.27
2019-05-02T05:39:18.530Z,7.73
2019-05-02T05:41:50.512Z,6.73
2019-05-02T05:44:10.877Z,6.70
2019-05-02T05:46:38.678Z,6.47
2019-05-02T05:49:03.258Z,7.10
2019-05-02T05:51:28.634Z,7.27
2019-05-02T05:53:59.062Z,6.83
2019-05-02T05:56:21.065Z,6.87
2019-05-02T05:58:50.401Z,7.10
2019-05-02T06:01:13.418Z,6.90
2019-05-02T06:03:43.617Z,7.03
2019-05-02T06:06:07.896Z,6.97
2019-05-02T06:08:32.754Z,7.33
2019-05-02T06:10:58.214Z,6.97
2019-05-02T06:13:23.568Z,7.00
2019-05-02T06:16:01.655Z,6.93
2019-05-02T06:18:16.296Z,7.50
2019-05-02T06:20:41.644Z,7.97
2019-05-02T06:23:07.006Z,7.17
2019-05-02T06:25:36.413Z,8.00
2019-05-02T06:28:00.124Z,7.73
2019-05-02T06:30:30.707Z,7.33
2019-05-02T06:32:55.067Z,7.70
2019-05-02T06:35:21.367Z,8.67
2019-05-02T06:37:50.081Z,8.20
2019-05-02T06:40:15.201Z,8.87
2019-05-02T06:42:40.554Z,8.30
2019-05-02T06:45:08.055Z,8.37
2019-05-02T06:47:36.049Z,8.50
2019-05-02T06:50:01.213Z,8.70
2019-05-02T06:52:32.755Z,8.73
2019-05-02T06:54:58.000Z,8.80
2019-05-02T06:57:24.073Z,9.40
2019-05-02T06:59:50.006Z,9.00
2019-05-02T07:02:15.715Z,8.73
2019-05-02T07:04:41.076Z,9.10
2019-05-02T07:07:06.446Z,8.70
2019-05-02T07:09:40.360Z,9.53
2019-05-02T07:12:01.479Z,9.33
2019-05-02T07:14:26.012Z,9.77
2019-05-02T07:17:10.371Z,10.47
2019-05-02T07:19:42.000Z,10.53
2019-05-02T07:22:07.355Z,9.23
2019-05-02T07:24:32.809Z,9.30
2019-05-02T07:26:58.223Z,10.27
2019-05-02T07:29:23.585Z,10.23
2019-05-02T07:31:48.994Z,10.27
2019-05-02T07:34:14.357Z,11.03
2019-05-02T07:36:39.729Z,11.33
2019-05-02T07:39:07.832Z,11.43
2019-05-02T07:41:33.498Z,10.73
2019-05-02T07:43:58.879Z,10.77
2019-05-02T07:46:24.394Z,11.03
2019-05-02T07:48:54.712Z,11.50
2019-05-02T07:51:17.269Z,11.20
2019-05-02T07:53:44.541Z,12.03
2019-05-02T07:56:12.497Z,11.40
2019-05-02T07:58:38.481Z,11.23
2019-05-02T08:01:08.053Z,11.73
2019-05-02T08:03:33.596Z,12.07
2019-05-02T08:05:59.949Z,12.13
2019-05-02T08:08:29.854Z,12.13
2019-05-02T08:11:01.331Z,11.50
2019-05-02T08:13:20.639Z,11.90
2019-05-02T08:15:50.739Z,12.73
2019-05-02T08:18:13.002Z,12.97
2019-05-02T08:20:38.890Z,12.90
2019-05-02T08:23:04.246Z,13.43
2019-05-02T08:25:29.606Z,13.40
2019-05-02T08:28:00.070Z,13.07
2019-05-02T08:30:28.474Z,13.90
2019-05-02T08:32:54.042Z,13.23
2019-05-02T08:35:20.419Z,14.07
2019-05-02T08:37:45.785Z,14.37
2019-05-02T08:40:12.082Z,14.83
2019-05-02T08:42:37.703Z,13.87
2019-05-02T08:45:03.174Z,14.70
2019-05-02T08:47:30.567Z,15.03
2019-05-02T08:49:56.711Z,15.20
2019-05-02T08:52:22.274Z,14.87
2019-05-02T08:54:47.641Z,14.40
2019-05-02T08:57:13.103Z,14.47
2019-05-02T08:59:40.840Z,14.30
2019-05-02T09:02:05.563Z,14.40
2019-05-02T09:04:30.963Z,15.33
2019-05-02T09:06:58.860Z,14.87
2019-05-02T09:09:27.952Z,15.03
2019-05-02T09:12:06.100Z,15.20
2019-05-02T09:14:17.369Z,14.90
2019-05-02T09:16:42.835Z,13.93
2019-05-02T09:19:15.245Z,15.60
2019-05-02T09:21:36.936Z,15.13
2019-05-02T09:24:02.624Z,14.00
2019-05-02T09:26:36.001Z,14.90
2019-05-02T09:28:56.276Z,14.50
2019-05-02T09:31:22.706Z,15.80
2019-05-02T09:33:48.160Z,16.17
2019-05-02T09:36:13.649Z,16.40
2019-05-02T09:38:39.924Z,15.40
2019-05-02T09:41:16.204Z,15.67
2019-05-02T09:43:34.881Z,15.43
2019-05-02T09:45:59.290Z,15.63
2019-05-02T09:48:26.799Z,17.57
2019-05-02T09:50:52.854Z,15.93
2019-05-02T09:53:20.884Z,15.80
2019-05-02T09:55:50.354Z,17.37
2019-05-02T09:58:19.619Z,15.97
2019-05-02T10:00:56.478Z,16.47
2019-05-02T10:03:22.578Z,16.80
2019-05-02T10:05:48.142Z,16.67
2019-05-02T10:08:13.985Z,17.57
2019-05-02T10:10:42.544Z,15.10
2019-05-02T10:13:07.943Z,17.40
2019-05-02T10:15:33.415Z,17.30
2019-05-02T10:18:08.741Z,17.93
2019-05-02T10:20:31.821Z,17.40
2019-05-02T10:22:53.099Z,17.93
2019-05-02T10:25:18.467Z,16.53
2019-05-02T10:27:47.426Z,17.07
2019-05-02T10:30:15.637Z,17.60
2019-05-02T10:32:40.049Z,16.73
2019-05-02T10:35:06.154Z,17.90
2019-05-02T10:37:38.133Z,17.20
2019-05-02T10:39:58.630Z,17.30
2019-05-02T10:42:24.003Z,17.60
2019-05-02T10:44:49.371Z,17.13
2019-05-02T10:47:14.755Z,16.50
2019-05-02T10:49:53.735Z,17.23
2019-05-02T10:52:21.552Z,17.03
2019-05-02T10:54:46.430Z,17.17
2019-05-02T10:57:12.589Z,16.70
2019-05-02T10:59:38.231Z,16.63
2019-05-02T11:02:22.244Z,17.17
2019-05-02T11:04:52.455Z,16.30
2019-05-02T11:07:22.764Z,16.93
2019-05-02T11:09:44.882Z,15.97
2019-05-02T11:12:11.940Z,16.27
2019-05-02T11:14:42.890Z,15.97
2019-05-02T11:17:27.182Z,16.07
2019-05-02T11:20:04.992Z,15.83
2019-05-02T11:22:32.027Z,15.40
2019-05-02T11:24:57.532Z,16.07
2019-05-02T11:27:22.961Z,16.17
2019-05-02T11:29:48.342Z,15.90
2019-05-02T11:32:13.714Z,17.03
2019-05-02T11:34:39.101Z,16.27
2019-05-02T11:37:04.582Z,15.73
2019-05-02T11:39:41.038Z,16.10
2019-05-02T11:41:57.054Z,16.73
2019-05-02T11:44:22.667Z,16.40
2019-05-02T11:46:49.265Z,16.07
2019-05-02T11:49:14.679Z,16.03
2019-05-02T11:51:41.624Z,16.10
2019-05-02T11:54:09.313Z,15.70
2019-05-02T11:56:34.198Z,14.93
2019-05-02T11:58:59.563Z,15.80
2019-05-02T12:01:35.314Z,15.47
2019-05-02T12:03:52.990Z,15.73
2019-05-02T12:06:19.640Z,15.50
2019-05-02T12:08:49.324Z,16.23
2019-05-02T12:11:13.980Z,15.50
2019-05-02T12:13:39.387Z,16.30
2019-05-02T12:16:08.583Z,15.97
2019-05-02T12:18:33.477Z,14.63
2019-05-02T12:20:58.900Z,15.17
2019-05-02T12:23:24.285Z,15.90
2019-05-02T12:25:51.845Z,15.73
2019-05-02T12:28:16.678Z,16.47
2019-05-02T12:30:42.163Z,16.43
2019-05-02T12:33:08.466Z,16.10
2019-05-02T12:35:33.851Z,15.43
2019-05-02T12:37:59.217Z,15.93
2019-05-02T12:40:24.663Z,15.77
2019-05-02T12:42:50.094Z,15.33
2019-05-02T12:45:16.262Z,14.97
2019-05-02T12:47:42.842Z,14.40
2019-05-02T12:50:08.556Z,14.30
2019-05-02T12:52:33.934Z,14.43
2019-05-02T12:54:59.303Z,13.37
2019-05-02T12:57:24.661Z,13.80
2019-05-02T12:59:50.080Z,13.43
2019-05-02T13:02:23.931Z,14.00
2019-05-02T13:04:49.316Z,13.43
2019-05-02T13:07:14.706Z,14.40
2019-05-02T13:09:41.968Z,13.27
2019-05-02T13:12:14.218Z,13.80
2019-05-02T13:14:39.607Z,13.70
2019-05-02T13:17:05.982Z,11.70
2019-05-02T13:19:40.007Z,11.27
2019-05-02T13:22:29.622Z,12.20
2019-05-02T13:25:15.220Z,12.07
2019-05-02T13:27:44.214Z,12.27
2019-05-02T13:30:12.364Z,12.20
2019-05-02T13:32:42.980Z,12.90
2019-05-02T13:35:34.434Z,12.23
2019-05-02T13:38:02.953Z,14.40
2019-05-02T13:40:33.047Z,12.47
2019-05-02T13:42:58.539Z,12.67
2019-05-02T13:45:42.923Z,12.20
2019-05-02T13:48:09.567Z,12.90
2019-05-02T13:50:35.102Z,13.10
2019-05-02T13:53:02.430Z,13.23
2019-05-02T13:55:31.838Z,13.50
2019-05-02T13:58:08.834Z,13.07
2019-05-02T14:00:44.699Z,13.57
2019-05-02T14:03:11.823Z,13.87
2019-05-02T14:05:45.941Z,14.77
2019-05-02T14:08:22.470Z,14.40
2019-05-02T14:10:49.865Z,15.23
2019-05-02T14:13:15.278Z,14.13
2019-05-02T14:15:42.074Z,13.73
2019-05-02T14:18:07.796Z,14.77
2019-05-02T14:20:33.262Z,14.57
2019-05-02T14:22:58.746Z,14.87
2019-05-02T14:25:24.113Z,14.37
2019-05-02T14:27:52.430Z,14.63
2019-05-02T14:30:32.889Z,15.07
2019-05-02T14:32:46.145Z,15.07
2019-05-02T14:35:28.258Z,15.60
2019-05-02T14:38:13.838Z,15.63
2019-05-02T14:41:09.910Z,16.63
2019-05-02T14:43:53.981Z,15.43
2019-05-02T14:46:22.244Z,15.60
2019-05-02T14:48:48.446Z,17.03
2019-05-02T14:51:16.797Z,16.07
2019-05-02T14:53:42.846Z,16.80
2019-05-02T14:56:29.866Z,17.10
2019-05-02T14:58:55.353Z,16.70
2019-05-02T15:01:25.828Z,16.60
2019-05-02T15:03:48.784Z,17.27
2019-05-02T15:06:14.172Z,17.30
2019-05-02T15:08:42.019Z,16.77
2019-05-02T15:11:06.701Z,17.87
2019-05-02T15:13:39.807Z,17.03
2019-05-02T15:15:59.058Z,17.43
2019-05-02T15:18:24.448Z,16.50
2019-05-02T15:20:51.993Z,16.77
2019-05-02T15:23:19.717Z,17.60
2019-05-02T15:25:47.197Z,16.80
2019-05-02T15:28:19.477Z,16.97
2019-05-02T15:30:49.360Z,17.13
2019-05-02T15:33:17.252Z,17.43
2019-05-02T15:35:52.678Z,18.27
2019-05-02T15:38:24.763Z,18.23
2019-05-02T15:40:50.075Z,17.57
2019-05-02T15:43:12.659Z,18.90
2019-05-02T15:45:43.452Z,17.40
2019-05-02T15:48:05.707Z,18.53
2019-05-02T15:50:32.609Z,17.37
2019-05-02T15:53:09.686Z,17.10
2019-05-02T15:55:33.267Z,17.63
2019-05-02T15:57:57.335Z,17.57
2019-05-02T16:00:27.914Z,18.30
2019-05-02T16:02:56.323Z,17.60
2019-05-02T16:05:22.137Z,18.17
2019-05-02T16:07:47.359Z,17.27
2019-05-02T16:10:13.686Z,16.83
2019-05-02T16:12:41.733Z,18.27
2019-05-02T16:15:13.590Z,18.30
2019-05-02T16:17:35.821Z,17.47
2019-05-02T16:20:10.858Z,16.57
2019-05-02T16:22:38.309Z,16.67
2019-05-02T16:25:02.309Z,18.67
2019-05-02T16:27:45.307Z,18.33
2019-05-02T16:30:13.338Z,16.90
2019-05-02T16:32:44.293Z,17.47
2019-05-02T16:35:13.524Z,17.80
2019-05-02T16:37:36.861Z,18.03
2019-05-02T16:40:02.679Z,17.50
2019-05-02T16:42:29.787Z,18.87
2019-05-02T16:44:55.253Z,18.20
2019-05-02T16:47:21.985Z,18.27
2019-05-02T16:49:47.865Z,17.47
2019-05-02T16:52:16.098Z,17.70
2019-05-02T16:54:43.791Z,18.63
2019-05-02T16:57:09.506Z,19.03
2019-05-02T16:59:34.864Z,18.53
2019-05-02T17:02:07.757Z,18.40
2019-05-02T17:04:27.305Z,17.80
2019-05-02T17:06:56.823Z,18.40
2019-05-02T17:09:40.121Z,17.83
2019-05-02T17:12:11.227Z,18.43
2019-05-02T17:14:33.663Z,18.50
2019-05-02T17:17:01.397Z,18.53
2019-05-02T17:19:31.401Z,18.63
2019-05-02T17:21:56.462Z,18.20
2019-05-02T17:24:24.581Z,18.50
2019-05-02T17:26:47.531Z,18.03
2019-05-02T17:29:16.402Z,18.30
2019-05-02T17:31:40.046Z,18.10
2019-05-02T17:34:05.433Z,18.97
2019-05-02T17:36:32.540Z,17.77
2019-05-02T17:38:59.274Z,16.77
2019-05-02T17:41:24.990Z,17.50
2019-05-02T17:43:50.399Z,18.13
2019-05-02T17:46:18.668Z,17.40
2019-05-02T17:48:47.761Z,18.27
2019-05-02T17:51:17.386Z,18.10
2019-05-02T17:53:49.623Z,17.90
2019-05-02T17:56:13.025Z,18.00
2019-05-02T17:58:38.431Z,18.83
2019-05-02T18:01:05.817Z,20.77
2019-05-02T18:03:35.143Z,20.43
2019-05-02T18:05:58.531Z,21.60
2019-05-02T18:08:23.904Z,21.63
2019-05-02T18:10:50.564Z,21.00
2019-05-02T18:13:16.258Z,21.67
2019-05-02T18:15:41.832Z,23.47
2019-05-02T18:18:08.023Z,21.83
2019-05-02T18:20:37.283Z,21.47
2019-05-02T18:23:02.682Z,22.10
2019-05-02T18:25:28.825Z,22.53
2019-05-02T18:27:54.254Z,21.77
2019-05-02T18:30:22.881Z,22.63
2019-05-02T18:32:48.323Z,23.00
2019-05-02T18:35:13.730Z,22.60
2019-05-02T18:37:45.062Z,22.87
2019-05-02T18:40:06.378Z,22.87
2019-05-02T18:42:31.822Z,24.63
2019-05-02T18:44:57.759Z,23.97
2019-05-02T18:47:24.632Z,23.93
2019-05-02T18:49:53.795Z,24.10
2019-05-02T18:52:17.418Z,23.93
2019-05-02T18:54:43.944Z,23.80
2019-05-02T18:57:11.810Z,25.20
2019-05-02T18:59:36.852Z,23.47
2019-05-02T19:02:02.402Z,23.60
2019-05-02T19:04:34.888Z,24.00
2019-05-02T19:06:54.862Z,23.10
2019-05-02T19:09:24.915Z,23.53
2019-05-02T19:11:47.261Z,23.63
2019-05-02T19:14:16.711Z,24.03
2019-05-02T19:16:39.664Z,23.70
2019-05-02T19:19:05.179Z,23.30
2019-05-02T19:21:32.110Z,24.07
2019-05-02T19:23:57.775Z,24.30
2019-05-02T19:26:23.230Z,23.47
2019-05-02T19:29:14.280Z,23.83
2019-05-02T19:31:46.147Z,22.40
2019-05-02T19:34:09.413Z,22.87
2019-05-02T19:36:36.414Z,22.00
2019-05-02T19:39:07.826Z,21.60
2019-05-02T19:41:29.073Z,21.53
2019-05-02T19:43:54.497Z,20.23
2019-05-02T19:46:26.049Z,18.97
2019-05-02T19:48:46.974Z,19.40
2019-05-02T19:51:18.386Z,18.70
2019-05-02T19:53:39.831Z,17.80
2019-05-02T19:56:06.680Z,18.53
2019-05-02T19:58:36.640Z,16.77
2019-05-02T20:01:02.174Z,17.70
2019-05-02T20:03:27.594Z,18.07
2019-05-02T20:05:56.681Z,16.73
2019-05-02T20:08:24.108Z,18.10
2019-05-02T20:10:49.280Z,16.57
2019-05-02T20:13:14.431Z,16.87
2019-05-02T20:15:43.794Z,16.43
2019-05-02T20:18:09.154Z,14.00
2019-05-02T20:20:52.004Z,13.50
2019-05-02T20:23:18.755Z,13.63
2019-05-02T20:25:44.681Z,13.10
2019-05-02T20:28:10.102Z,11.17
2019-05-02T20:30:35.465Z,11.47
2019-05-02T20:33:02.143Z,11.07
2019-05-02T20:35:31.929Z,9.83
2019-05-02T20:37:57.440Z,10.20
2019-05-02T20:40:32.141Z,10.30
2019-05-02T20:42:57.490Z,9.87
2019-05-02T20:45:25.310Z,9.87
2019-05-02T20:47:52.403Z,10.00
2019-05-02T20:50:18.330Z,10.37
2019-05-02T20:52:43.690Z,10.57
2019-05-02T20:55:09.046Z,11.03
2019-05-02T20:57:34.438Z,10.40
2019-05-02T21:00:01.614Z,10.30
2019-05-02T21:02:28.392Z,9.97
2019-05-02T21:04:54.569Z,10.13
2019-05-02T21:07:33.098Z,9.97
2019-05-02T21:10:02.848Z,8.77
2019-05-02T21:12:30.023Z,9.00
2019-05-02T21:14:55.397Z,9.30
2019-05-02T21:17:22.943Z,8.40
2019-05-02T21:20:01.503Z,8.07
2019-05-02T21:22:29.491Z,7.53
2019-05-02T21:24:54.866Z,7.37
2019-05-02T21:27:21.885Z,7.33
2019-05-02T21:29:48.389Z,7.27
2019-05-02T21:32:13.749Z,7.60
2019-05-02T21:34:39.165Z,7.17
2019-05-02T21:37:04.874Z,6.23
2019-05-02T21:39:31.900Z,6.00
2019-05-02T21:41:57.404Z,5.07
2019-05-02T21:44:22.906Z,5.37
2019-05-02T21:46:48.278Z,5.20
2019-05-02T21:49:15.964Z,5.10
2019-05-02T21:52:02.238Z,5.70
2019-05-02T21:54:37.914Z,5.47
2019-05-02T21:57:12.025Z,6.10
2019-05-02T21:59:37.639Z,5.27
2019-05-02T22:02:03.925Z,5.47
2019-05-02T22:04:31.642Z,4.90
2019-05-02T22:06:56.519Z,4.37
2019-05-02T22:09:23.292Z,3.90
2019-05-02T22:11:49.311Z,3.77
2019-05-02T22:14:14.693Z,3.70
2019-05-02T22:16:41.964Z,3.40
2019-05-02T22:19:07.098Z,2.80
2019-05-02T22:21:35.140Z,3.10
2019-05-02T22:24:10.375Z,2.70
2019-05-02T22:26:26.642Z,2.77
2019-05-02T22:28:53.754Z,2.33
2019-05-02T22:31:19.128Z,2.77
2019-05-02T22:33:44.733Z,2.60
2019-05-02T22:36:12.372Z,2.70
2019-05-02T22:38:44.582Z,2.50
2019-05-02T22:41:12.140Z,2.50
2019-05-02T22:43:37.212Z,2.40
2019-05-02T22:46:05.350Z,2.77
2019-05-02T22:48:31.899Z,2.60
2019-05-02T22:50:57.263Z,2.10
2019-05-02T22:53:22.633Z,1.90
2019-05-02T22:55:48.022Z,2.93
2019-05-02T22:58:13.371Z,2.77
2019-05-02T23:00:38.725Z,2.77
2019-05-02T23:03:04.094Z,2.20
2019-05-02T23:05:29.442Z,2.13
2019-05-02T23:07:54.814Z,2.10
2019-05-02T23:10:21.989Z,2.40
2019-05-02T23:12:47.311Z,2.20
2019-05-02T23:15:12.765Z,2.50
2019-05-02T23:17:38.121Z,2.53
2019-05-02T23:20:03.566Z,2.40
2019-05-02T23:22:28.913Z,2.40
2019-05-02T23:25:32.210Z,2.90
2019-05-02T23:28:02.471Z,2.50
2019-05-02T23:30:27.890Z,2.60
2019-05-02T23:32:53.510Z,2.30
2019-05-02T23:35:18.876Z,2.47
2019-05-02T23:37:44.246Z,2.33
2019-05-02T23:40:10.133Z,2.67
2019-05-02T23:42:35.486Z,2.77
2019-05-02T23:45:02.664Z,2.83
2019-05-02T23:47:28.915Z,2.57
2019-05-02T23:49:54.278Z,2.90
2019-05-02T23:52:19.656Z,2.77
2019-05-02T23:54:52.039Z,2.30
2019-05-02T23:57:12.244Z,2.73
2019-05-02T23:59:51.690Z,2.77
